createdAt,value
2023-02-19T00:02:02.558Z,9.75
2023-02-19T00:04:30.868Z,9.75
2023-02-19T00:06:59.244Z,9.75
2023-02-19T00:09:27.629Z,9.76
2023-02-19T00:11:56.124Z,9.78
2023-02-19T00:14:24.436Z,9.80
2023-02-19T00:16:52.714Z,9.83
2023-02-19T00:19:21.645Z,9.79
2023-02-19T00:21:54.009Z,9.78
2023-02-19T00:24:23.183Z,9.73
2023-02-19T00:26:52.383Z,9.69
2023-02-19T00:29:22.029Z,9.66
2023-02-19T00:31:51.848Z,9.64
2023-02-19T00:34:23.297Z,9.64
2023-02-19T00:36:51.867Z,9.61
2023-02-19T00:39:21.771Z,9.59
2023-02-19T00:41:50.510Z,9.55
2023-02-19T00:44:19.160Z,9.52
2023-02-19T00:46:49.596Z,9.51
2023-02-19T00:49:23.681Z,9.51
2023-02-19T00:51:53.499Z,9.50
2023-02-19T00:54:23.005Z,9.46
2023-02-19T00:56:51.884Z,9.42
2023-02-19T00:59:21.220Z,9.36
2023-02-19T01:01:51.764Z,9.30
2023-02-19T01:04:20.234Z,9.24
2023-02-19T01:06:49.256Z,9.19
2023-02-19T01:09:17.451Z,9.15
2023-02-19T01:11:46.052Z,9.16
2023-02-19T01:14:14.361Z,9.16
2023-02-19T01:16:42.638Z,9.11
2023-02-19T01:19:14.060Z,9.03
2023-02-19T01:21:42.214Z,8.97
2023-02-19T01:24:11.765Z,8.91
2023-02-19T01:26:40.895Z,8.87
2023-02-19T01:29:10.224Z,8.83
2023-02-19T01:31:41.336Z,8.82
2023-02-19T01:34:12.323Z,8.79
2023-02-19T01:36:41.408Z,8.79
2023-02-19T01:39:11.445Z,8.76
2023-02-19T01:41:41.647Z,8.71
2023-02-19T01:44:16.061Z,8.66
2023-02-19T01:46:51.790Z,8.63
2023-02-19T01:49:35.624Z,8.62
2023-02-19T01:52:16.700Z,8.61
2023-02-19T01:54:46.278Z,8.55
2023-02-19T01:57:19.541Z,8.48
2023-02-19T01:59:50.788Z,8.45
2023-02-19T02:02:18.965Z,8.39
2023-02-19T02:04:48.730Z,8.35
2023-02-19T02:07:53.557Z,8.29
2023-02-19T02:10:21.925Z,8.25
2023-02-19T02:12:52.769Z,8.23
2023-02-19T02:15:22.644Z,8.20
2023-02-19T02:17:58.232Z,8.18
2023-02-19T02:21:04.709Z,8.17
2023-02-19T02:24:12.211Z,8.15
2023-02-19T02:27:14.448Z,8.13
2023-02-19T02:30:20.273Z,8.09
2023-02-19T02:33:06.622Z,8.01
2023-02-19T02:35:44.179Z,7.93
2023-02-19T02:38:15.602Z,7.86
2023-02-19T02:40:45.728Z,7.82
2023-02-19T02:43:14.624Z,7.79
2023-02-19T02:45:43.480Z,7.79
2023-02-19T02:48:41.041Z,7.80
2023-02-19T02:51:19.234Z,7.81
2023-02-19T02:54:30.920Z,7.80
2023-02-19T02:57:01.262Z,7.80
2023-02-19T02:59:36.294Z,7.78
2023-02-19T03:02:18.973Z,7.74
2023-02-19T03:05:25.392Z,7.69
2023-02-19T03:08:18.176Z,7.63
2023-02-19T03:11:32.484Z,7.59
2023-02-19T03:14:36.855Z,7.55
2023-02-19T03:17:49.676Z,7.53
2023-02-19T03:20:22.128Z,7.50
2023-02-19T03:22:53.412Z,7.50
2023-02-19T03:25:46.820Z,7.49
2023-02-19T03:28:20.255Z,7.45
2023-02-19T03:30:53.618Z,7.38
2023-02-19T03:33:26.026Z,7.32
2023-02-19T03:36:02.367Z,7.22
2023-02-19T03:38:45.020Z,7.14
2023-02-19T03:41:48.438Z,7.05
2023-02-19T03:44:38.160Z,6.96
2023-02-19T03:47:27.725Z,6.87
2023-02-19T03:50:17.299Z,6.79
2023-02-19T03:53:05.386Z,6.72
2023-02-19T03:56:05.972Z,6.67
2023-02-19T03:58:41.053Z,6.65
2023-02-19T04:01:17.221Z,6.63
2023-02-19T04:03:49.218Z,6.62
2023-02-19T04:06:27.052Z,6.61
2023-02-19T04:08:59.865Z,6.60
2023-02-19T04:11:31.360Z,6.59
2023-02-19T04:14:32.660Z,6.58
2023-02-19T04:17:09.596Z,6.57
2023-02-19T04:19:41.809Z,6.54
2023-02-19T04:22:12.138Z,6.53
2023-02-19T04:24:52.477Z,6.55
2023-02-19T04:27:20.802Z,6.53
2023-02-19T04:29:49.090Z,6.50
2023-02-19T04:32:17.561Z,6.47
2023-02-19T04:34:45.891Z,6.48
2023-02-19T04:37:14.143Z,6.49
2023-02-19T04:39:42.706Z,6.54
2023-02-19T04:42:11.503Z,6.60
2023-02-19T04:44:39.588Z,6.64
2023-02-19T04:47:08.593Z,6.72
2023-02-19T04:49:36.877Z,6.79
2023-02-19T04:52:05.251Z,6.83
2023-02-19T04:54:33.414Z,6.84
2023-02-19T04:57:01.687Z,6.84
2023-02-19T04:59:30.373Z,6.84
2023-02-19T05:01:58.651Z,6.83
2023-02-19T05:04:26.907Z,6.79
2023-02-19T05:06:55.538Z,6.75
2023-02-19T05:09:23.770Z,6.71
2023-02-19T05:11:52.172Z,6.67
2023-02-19T05:14:21.044Z,6.60
2023-02-19T05:16:49.313Z,6.52
2023-02-19T05:19:17.797Z,6.48
2023-02-19T05:21:46.392Z,6.44
2023-02-19T05:24:14.994Z,6.45
2023-02-19T05:26:45.368Z,6.44
2023-02-19T05:29:13.764Z,6.42
2023-02-19T05:31:42.421Z,6.42
2023-02-19T05:34:10.898Z,6.44
2023-02-19T05:36:39.835Z,6.48
2023-02-19T05:39:09.746Z,6.56
2023-02-19T05:41:40.275Z,6.68
2023-02-19T05:44:10.914Z,6.81
2023-02-19T05:46:39.313Z,6.96
2023-02-19T05:49:07.508Z,7.09
2023-02-19T05:51:35.900Z,7.24
2023-02-19T05:54:04.352Z,7.32
2023-02-19T05:56:35.900Z,7.37
2023-02-19T05:59:21.515Z,7.42
2023-02-19T06:01:52.090Z,7.52
2023-02-19T06:04:21.311Z,7.75
2023-02-19T06:06:49.968Z,7.93
2023-02-19T06:09:18.292Z,8.03
2023-02-19T06:11:46.847Z,8.13
2023-02-19T06:14:15.196Z,8.17
2023-02-19T06:16:43.437Z,8.20
2023-02-19T06:19:11.615Z,8.21
2023-02-19T06:21:39.938Z,8.24
2023-02-19T06:24:09.166Z,8.23
2023-02-19T06:26:38.585Z,8.21
2023-02-19T06:29:06.935Z,8.25
2023-02-19T06:31:35.296Z,8.33
2023-02-19T06:34:05.100Z,8.38
2023-02-19T06:36:33.990Z,8.41
2023-02-19T06:39:04.327Z,8.43
2023-02-19T06:41:33.347Z,8.44
2023-02-19T06:44:01.564Z,8.44
2023-02-19T06:46:30.089Z,8.44
2023-02-19T06:48:58.660Z,8.48
2023-02-19T06:51:29.178Z,8.48
2023-02-19T06:53:57.606Z,8.53
2023-02-19T06:56:39.865Z,8.59
2023-02-19T06:59:12.584Z,8.64
2023-02-19T07:01:41.185Z,8.69
2023-02-19T07:04:10.018Z,8.74
2023-02-19T07:06:39.049Z,8.77
2023-02-19T07:09:08.837Z,8.83
2023-02-19T07:11:39.462Z,8.86
2023-02-19T07:14:13.684Z,8.88
2023-02-19T07:16:42.405Z,8.92
2023-02-19T07:19:12.447Z,8.95
2023-02-19T07:21:43.028Z,9.05
2023-02-19T07:24:11.941Z,9.14
2023-02-19T07:26:40.775Z,9.18
2023-02-19T07:29:10.132Z,9.25
2023-02-19T07:31:38.849Z,9.32
2023-02-19T07:34:08.008Z,9.38
2023-02-19T07:36:36.431Z,9.39
2023-02-19T07:39:05.292Z,9.45
2023-02-19T07:41:34.320Z,9.51
2023-02-19T07:44:02.652Z,9.56
2023-02-19T07:46:32.379Z,9.61
2023-02-19T07:49:01.257Z,9.69
2023-02-19T07:51:29.774Z,9.84
2023-02-19T07:53:59.018Z,9.96
2023-02-19T07:56:29.192Z,10.05
2023-02-19T07:59:00.756Z,10.22
2023-02-19T08:01:47.861Z,10.36
2023-02-19T08:04:16.455Z,10.52
2023-02-19T08:06:44.747Z,10.59
2023-02-19T08:09:13.309Z,10.68
2023-02-19T08:12:00.277Z,10.82
2023-02-19T08:14:29.116Z,10.95
2023-02-19T08:16:57.537Z,10.97
2023-02-19T08:19:26.053Z,11.04
2023-02-19T08:21:54.491Z,11.15
2023-02-19T08:24:23.282Z,11.14
2023-02-19T08:26:51.789Z,11.22
2023-02-19T08:29:20.264Z,11.31
2023-02-19T08:31:48.563Z,11.35
2023-02-19T08:34:16.836Z,11.14
2023-02-19T08:36:44.930Z,11.06
2023-02-19T08:39:13.185Z,11.20
2023-02-19T08:41:41.917Z,11.42
2023-02-19T08:44:10.162Z,11.64
2023-02-19T08:46:38.340Z,11.74
2023-02-19T08:49:06.825Z,11.84
2023-02-19T08:51:35.463Z,11.72
2023-02-19T08:54:04.568Z,11.74
2023-02-19T08:56:32.968Z,11.62
2023-02-19T08:59:02.194Z,11.65
2023-02-19T09:01:32.317Z,11.71
2023-02-19T09:04:02.463Z,11.81
2023-02-19T09:06:30.952Z,11.91
2023-02-19T09:08:59.275Z,11.95
2023-02-19T09:11:27.917Z,12.10
2023-02-19T09:13:57.880Z,12.25
2023-02-19T09:16:26.515Z,12.32
2023-02-19T09:18:55.207Z,12.38
2023-02-19T09:21:23.820Z,12.47
2023-02-19T09:23:52.404Z,12.52
2023-02-19T09:26:21.203Z,12.48
2023-02-19T09:28:49.906Z,12.65
2023-02-19T09:31:20.116Z,12.68
2023-02-19T09:33:49.305Z,12.75
2023-02-19T09:36:19.116Z,12.86
2023-02-19T09:38:47.926Z,12.91
2023-02-19T09:41:40.099Z,13.13
2023-02-19T09:44:13.959Z,13.12
2023-02-19T09:46:46.437Z,13.01
2023-02-19T09:49:16.263Z,12.96
2023-02-19T09:51:51.174Z,12.86
2023-02-19T09:54:29.149Z,12.78
2023-02-19T09:57:01.957Z,12.86
2023-02-19T09:59:51.839Z,12.76
2023-02-19T10:02:23.313Z,12.97
2023-02-19T10:04:53.164Z,13.05
2023-02-19T10:07:26.842Z,13.01
2023-02-19T10:10:02.764Z,13.04
2023-02-19T10:12:32.797Z,12.97
2023-02-19T10:15:22.992Z,12.90
2023-02-19T10:17:52.198Z,12.91
2023-02-19T10:20:25.050Z,13.12
2023-02-19T10:23:03.639Z,13.14
2023-02-19T10:25:34.336Z,13.34
2023-02-19T10:28:04.840Z,13.47
2023-02-19T10:30:36.332Z,13.28
2023-02-19T10:33:13.818Z,13.25
2023-02-19T10:36:05.523Z,13.25
2023-02-19T10:38:39.637Z,13.21
2023-02-19T10:41:23.321Z,13.06
2023-02-19T10:43:57.067Z,13.05
2023-02-19T10:46:33.065Z,13.10
2023-02-19T10:49:05.036Z,13.08
2023-02-19T10:51:41.244Z,13.20
2023-02-19T10:54:36.210Z,13.33
2023-02-19T10:57:21.395Z,13.34
2023-02-19T10:59:59.432Z,13.24
2023-02-19T11:02:30.134Z,13.28
2023-02-19T11:05:16.753Z,13.26
2023-02-19T11:07:56.269Z,13.29
2023-02-19T11:10:39.179Z,13.20
2023-02-19T11:13:14.740Z,12.95
2023-02-19T11:15:44.320Z,12.83
2023-02-19T11:18:12.497Z,12.74
2023-02-19T11:20:59.268Z,12.69
2023-02-19T11:23:44.165Z,12.73
2023-02-19T11:26:22.819Z,12.67
2023-02-19T11:29:12.180Z,12.61
2023-02-19T11:31:40.754Z,12.59
2023-02-19T11:34:15.803Z,12.54
2023-02-19T11:36:44.544Z,12.48
2023-02-19T11:39:16.527Z,12.29
2023-02-19T11:41:57.178Z,12.38
2023-02-19T11:44:39.488Z,12.39
2023-02-19T11:47:26.360Z,12.49
2023-02-19T11:50:21.760Z,12.52
2023-02-19T11:53:07.097Z,12.58
2023-02-19T11:56:00.274Z,12.64
2023-02-19T11:58:50.476Z,12.68
2023-02-19T12:01:29.290Z,12.73
2023-02-19T12:04:27.272Z,12.65
2023-02-19T12:06:55.636Z,12.63
2023-02-19T12:10:01.144Z,12.72
2023-02-19T12:12:55.367Z,12.72
2023-02-19T12:16:03.274Z,12.83
2023-02-19T12:18:47.048Z,12.84
2023-02-19T12:21:34.130Z,12.89
2023-02-19T12:24:25.194Z,13.01
2023-02-19T12:27:29.100Z,13.09
2023-02-19T12:30:19.293Z,13.15
2023-02-19T12:33:22.099Z,13.22
2023-02-19T12:36:12.084Z,13.19
2023-02-19T12:38:44.911Z,13.19
2023-02-19T12:41:18.663Z,13.28
2023-02-19T12:43:55.556Z,13.28
2023-02-19T12:46:37.677Z,13.24
2023-02-19T12:49:18.726Z,13.17
2023-02-19T12:51:57.621Z,12.95
2023-02-19T12:54:41.325Z,12.66
2023-02-19T12:57:18.682Z,12.54
2023-02-19T13:00:04.830Z,12.27
2023-02-19T13:02:42.599Z,12.14
2023-02-19T13:05:36.422Z,12.01
2023-02-19T13:08:15.026Z,11.75
2023-02-19T13:10:46.247Z,11.54
2023-02-19T13:13:25.171Z,11.39
2023-02-19T13:16:00.386Z,11.27
2023-02-19T13:18:52.292Z,11.30
2023-02-19T13:21:42.790Z,11.19
2023-02-19T13:24:17.539Z,11.01
2023-02-19T13:27:08.726Z,10.97
2023-02-19T13:29:39.895Z,10.92
2023-02-19T13:32:26.330Z,10.78
2023-02-19T13:35:29.880Z,10.72
2023-02-19T13:38:02.949Z,10.65
2023-02-19T13:40:43.672Z,10.64
2023-02-19T13:43:26.916Z,10.56
2023-02-19T13:45:59.106Z,10.54
2023-02-19T13:48:32.159Z,10.57
2023-02-19T13:51:19.150Z,10.58
2023-02-19T13:53:50.462Z,10.64
2023-02-19T13:56:44.845Z,10.70
2023-02-19T13:59:40.683Z,10.71
2023-02-19T14:02:22.398Z,10.69
2023-02-19T14:04:51.917Z,10.66
2023-02-19T14:07:34.026Z,10.54
2023-02-19T14:10:03.093Z,10.42
2023-02-19T14:12:34.407Z,10.43
2023-02-19T14:15:43.478Z,10.39
2023-02-19T14:18:42.630Z,10.34
2023-02-19T14:21:26.222Z,10.37
2023-02-19T14:23:57.990Z,10.45
2023-02-19T14:26:27.461Z,10.52
2023-02-19T14:28:56.290Z,10.64
2023-02-19T14:31:33.450Z,10.77
2023-02-19T14:34:05.127Z,10.78
2023-02-19T14:36:44.343Z,10.81
2023-02-19T14:39:21.097Z,10.80
2023-02-19T14:41:52.902Z,10.77
2023-02-19T14:44:25.943Z,10.66
2023-02-19T14:47:09.624Z,10.63
2023-02-19T14:49:44.632Z,10.62
2023-02-19T14:52:26.880Z,10.60
2023-02-19T14:55:08.662Z,10.60
2023-02-19T14:57:41.563Z,10.57
2023-02-19T15:00:25.107Z,10.55
2023-02-19T15:02:56.927Z,10.60
2023-02-19T15:05:28.286Z,10.63
2023-02-19T15:08:01.597Z,10.68
2023-02-19T15:10:32.922Z,10.71
2023-02-19T15:13:17.090Z,10.73
2023-02-19T15:15:47.416Z,10.72
2023-02-19T15:18:24.829Z,10.73
2023-02-19T15:21:01.713Z,10.76
2023-02-19T15:23:31.708Z,10.79
2023-02-19T15:26:00.731Z,10.81
2023-02-19T15:28:34.459Z,10.80
2023-02-19T15:31:03.495Z,10.82
2023-02-19T15:33:32.195Z,10.81
2023-02-19T15:36:05.419Z,10.80
2023-02-19T15:38:34.217Z,10.76
2023-02-19T15:41:02.981Z,10.71
2023-02-19T15:43:44.623Z,10.67
2023-02-19T15:46:21.104Z,10.62
2023-02-19T15:48:52.053Z,10.52
2023-02-19T15:51:29.621Z,10.41
2023-02-19T15:54:07.607Z,10.32
2023-02-19T15:56:42.146Z,10.25
2023-02-19T15:59:32.346Z,10.15
2023-02-19T16:02:01.799Z,10.00
2023-02-19T16:04:30.728Z,9.89
2023-02-19T16:07:03.879Z,9.74
2023-02-19T16:09:36.256Z,9.58
2023-02-19T16:12:21.466Z,9.48
2023-02-19T16:14:51.308Z,9.36
2023-02-19T16:17:23.599Z,9.25
2023-02-19T16:20:01.435Z,9.20
2023-02-19T16:22:34.846Z,9.09
2023-02-19T16:25:06.840Z,9.00
2023-02-19T16:27:42.142Z,8.95
2023-02-19T16:30:16.673Z,8.85
2023-02-19T16:32:47.290Z,8.74
2023-02-19T16:35:40.095Z,8.64
2023-02-19T16:38:14.838Z,8.54
2023-02-19T16:40:51.079Z,8.44
2023-02-19T16:43:31.662Z,8.37
2023-02-19T16:46:00.561Z,8.29
2023-02-19T16:48:29.175Z,8.23
2023-02-19T16:50:57.658Z,8.19
2023-02-19T16:53:26.217Z,8.11
2023-02-19T16:55:54.846Z,8.03
2023-02-19T16:58:23.487Z,7.97
2023-02-19T17:00:55.441Z,7.91
2023-02-19T17:03:26.065Z,7.86
2023-02-19T17:05:55.154Z,7.84
2023-02-19T17:08:37.185Z,7.82
2023-02-19T17:11:11.177Z,7.82
2023-02-19T17:13:41.251Z,7.86
2023-02-19T17:16:24.515Z,7.93
2023-02-19T17:18:54.422Z,7.97
2023-02-19T17:21:25.434Z,7.95
2023-02-19T17:23:55.003Z,7.96
2023-02-19T17:26:28.196Z,7.98
2023-02-19T17:29:02.104Z,8.01
2023-02-19T17:31:31.262Z,8.02
2023-02-19T17:33:59.867Z,8.03
2023-02-19T17:36:31.008Z,8.06
2023-02-19T17:39:01.218Z,8.05
2023-02-19T17:41:29.765Z,8.03
2023-02-19T17:43:58.061Z,8.04
2023-02-19T17:46:27.724Z,8.10
2023-02-19T17:48:55.998Z,8.13
2023-02-19T17:51:24.382Z,8.15
2023-02-19T17:53:52.608Z,8.17
2023-02-19T17:56:25.731Z,8.20
2023-02-19T17:58:56.295Z,8.27
2023-02-19T18:01:25.106Z,8.35
2023-02-19T18:03:53.902Z,8.43
2023-02-19T18:06:23.383Z,8.50
2023-02-19T18:08:54.037Z,8.58
2023-02-19T18:11:23.880Z,8.63
2023-02-19T18:13:52.980Z,8.67
2023-02-19T18:16:22.399Z,8.69
2023-02-19T18:18:51.232Z,8.69
2023-02-19T18:21:19.888Z,8.72
2023-02-19T18:23:48.089Z,8.75
2023-02-19T18:26:20.213Z,8.76
2023-02-19T18:28:48.440Z,8.79
2023-02-19T18:31:17.194Z,8.83
2023-02-19T18:33:45.724Z,8.84
2023-02-19T18:36:14.240Z,8.86
2023-02-19T18:38:42.426Z,8.62
2023-02-19T18:41:14.663Z,8.46
2023-02-19T18:43:43.104Z,8.03
2023-02-19T18:46:11.941Z,7.75
2023-02-19T18:48:40.166Z,7.48
2023-02-19T18:51:12.480Z,7.21
2023-02-19T18:53:43.246Z,7.02
2023-02-19T18:56:11.688Z,6.91
2023-02-19T18:58:39.987Z,6.75
2023-02-19T19:01:08.694Z,6.62
2023-02-19T19:03:36.815Z,6.49
2023-02-19T19:06:05.179Z,6.29
2023-02-19T19:08:34.199Z,6.04
2023-02-19T19:11:02.966Z,5.65
2023-02-19T19:13:31.040Z,5.52
2023-02-19T19:15:59.145Z,5.44
2023-02-19T19:18:28.161Z,5.38
2023-02-19T19:21:01.715Z,5.27
2023-02-19T19:23:33.021Z,5.20
2023-02-19T19:26:04.737Z,5.20
2023-02-19T19:28:33.353Z,5.23
2023-02-19T19:31:02.492Z,5.20
2023-02-19T19:33:31.289Z,5.14
2023-02-19T19:36:00.618Z,5.09
2023-02-19T19:38:29.749Z,5.09
2023-02-19T19:40:59.612Z,5.08
2023-02-19T19:43:30.188Z,5.07
2023-02-19T19:45:59.000Z,5.08
2023-02-19T19:48:30.007Z,5.08
2023-02-19T19:50:58.197Z,5.07
2023-02-19T19:53:26.635Z,5.08
2023-02-19T19:55:54.904Z,5.05
2023-02-19T19:58:25.070Z,5.04
2023-02-19T20:00:54.178Z,5.02
2023-02-19T20:03:22.407Z,4.99
2023-02-19T20:05:51.566Z,4.94
2023-02-19T20:08:20.560Z,4.93
2023-02-19T20:10:49.417Z,4.92
2023-02-19T20:13:24.350Z,4.94
2023-02-19T20:15:52.905Z,4.95
2023-02-19T20:18:21.812Z,4.99
2023-02-19T20:20:50.412Z,5.03
2023-02-19T20:23:19.273Z,5.05
2023-02-19T20:25:47.672Z,5.09
2023-02-19T20:28:16.077Z,5.13
2023-02-19T20:30:44.710Z,5.16
2023-02-19T20:33:13.676Z,5.19
2023-02-19T20:35:41.690Z,5.21
2023-02-19T20:38:09.632Z,5.21
2023-02-19T20:40:37.657Z,5.19
2023-02-19T20:43:05.561Z,5.14
2023-02-19T20:45:33.706Z,5.12
2023-02-19T20:48:01.839Z,5.11
2023-02-19T20:50:29.930Z,5.06
2023-02-19T20:52:58.229Z,5.02
2023-02-19T20:55:26.393Z,4.99
2023-02-19T20:57:54.407Z,4.96
2023-02-19T21:00:22.665Z,4.96
2023-02-19T21:02:51.826Z,4.95
2023-02-19T21:05:20.381Z,4.97
2023-02-19T21:07:48.558Z,5.00
2023-02-19T21:10:16.733Z,5.04
2023-02-19T21:12:44.814Z,5.07
2023-02-19T21:15:15.241Z,5.10
2023-02-19T21:17:46.807Z,5.12
2023-02-19T21:20:18.137Z,5.07
2023-02-19T21:22:46.723Z,5.02
2023-02-19T21:25:15.190Z,4.99
2023-02-19T21:27:43.390Z,4.97
2023-02-19T21:30:12.145Z,4.97
2023-02-19T21:32:40.563Z,5.00
2023-02-19T21:35:08.924Z,4.91
2023-02-19T21:37:37.000Z,4.92
2023-02-19T21:40:06.504Z,4.94
2023-02-19T21:42:34.665Z,4.81
2023-02-19T21:45:03.827Z,4.75
2023-02-19T21:47:32.007Z,4.65
2023-02-19T21:50:00.259Z,4.61
2023-02-19T21:52:29.108Z,4.45
2023-02-19T21:54:58.025Z,4.39
2023-02-19T21:57:26.342Z,4.27
2023-02-19T21:59:54.691Z,4.19
2023-02-19T22:02:22.894Z,4.15
2023-02-19T22:04:53.816Z,4.10
2023-02-19T22:07:22.557Z,4.08
2023-02-19T22:09:52.161Z,3.99
2023-02-19T22:12:21.096Z,3.80
2023-02-19T22:14:49.280Z,3.71
2023-02-19T22:17:17.538Z,3.60
2023-02-19T22:19:46.352Z,3.60
2023-02-19T22:22:15.270Z,3.55
2023-02-19T22:24:43.571Z,3.57
2023-02-19T22:27:11.898Z,3.51
2023-02-19T22:29:40.630Z,3.41
2023-02-19T22:32:10.203Z,3.36
2023-02-19T22:34:40.722Z,3.36
2023-02-19T22:37:10.287Z,3.33
2023-02-19T22:39:38.724Z,3.38
2023-02-19T22:42:08.798Z,3.39
2023-02-19T22:44:37.430Z,3.37
2023-02-19T22:47:05.693Z,3.33
2023-02-19T22:49:33.898Z,3.31
2023-02-19T22:52:05.992Z,3.26
2023-02-19T22:54:35.729Z,3.23
2023-02-19T22:57:04.567Z,3.20
2023-02-19T22:59:33.373Z,3.16
2023-02-19T23:02:01.554Z,3.15
2023-02-19T23:04:29.944Z,3.13
2023-02-19T23:06:58.184Z,3.12
2023-02-19T23:09:28.803Z,3.08
2023-02-19T23:12:06.202Z,3.03
2023-02-19T23:14:34.496Z,2.88
2023-02-19T23:17:02.849Z,2.89
2023-02-19T23:19:31.492Z,2.87
2023-02-19T23:22:00.256Z,2.86
2023-02-19T23:24:28.734Z,2.82
2023-02-19T23:26:58.034Z,2.75
2023-02-19T23:29:27.638Z,2.69
2023-02-19T23:31:56.007Z,2.65
2023-02-19T23:34:24.598Z,2.57
2023-02-19T23:36:54.890Z,2.55
2023-02-19T23:39:23.276Z,2.53
2023-02-19T23:41:57.067Z,2.49
2023-02-19T23:44:26.023Z,2.45
2023-02-19T23:46:54.738Z,2.38
2023-02-19T23:49:23.418Z,2.32
2023-02-19T23:51:52.166Z,2.36
2023-02-19T23:54:20.517Z,2.38
2023-02-19T23:56:48.966Z,2.37
2023-02-19T23:59:17.272Z,2.35
